createdAt,value
2022-09-14T00:01:24.716Z,18.00
2022-09-14T00:03:53.595Z,17.99
2022-09-14T00:06:21.408Z,17.93
2022-09-14T00:08:51.822Z,17.93
2022-09-14T00:11:19.540Z,17.96
2022-09-14T00:13:48.411Z,18.00
2022-09-14T00:16:19.472Z,18.02
2022-09-14T00:18:51.811Z,17.98
2022-09-14T00:21:19.576Z,17.98
2022-09-14T00:23:47.238Z,18.00
2022-09-14T00:26:16.660Z,18.03
2022-09-14T00:28:45.401Z,18.04
2022-09-14T00:31:13.691Z,18.06
2022-09-14T00:33:44.525Z,18.01
2022-09-14T00:36:14.112Z,18.00
2022-09-14T00:38:41.953Z,18.01
2022-09-14T00:41:12.403Z,17.94
2022-09-14T00:43:54.146Z,17.91
2022-09-14T00:46:22.110Z,17.87
2022-09-14T00:48:51.130Z,17.84
2022-09-14T00:51:20.160Z,17.83
2022-09-14T00:53:48.000Z,17.83
2022-09-14T00:56:16.104Z,17.81
2022-09-14T00:58:44.525Z,17.70
2022-09-14T01:01:12.468Z,17.62
2022-09-14T01:03:40.240Z,17.63
2022-09-14T01:06:18.233Z,17.67
2022-09-14T01:09:08.155Z,17.69
2022-09-14T01:11:48.278Z,17.72
2022-09-14T01:14:23.939Z,17.75
2022-09-14T01:16:56.629Z,17.68
2022-09-14T01:19:27.294Z,17.68
2022-09-14T01:21:56.968Z,17.68
2022-09-14T01:24:29.517Z,17.68
2022-09-14T01:27:22.881Z,17.68
2022-09-14T01:29:54.015Z,17.65
2022-09-14T01:32:23.592Z,17.63
2022-09-14T01:34:55.085Z,17.60
2022-09-14T01:37:28.360Z,17.60
2022-09-14T01:39:58.905Z,17.49
2022-09-14T01:42:28.802Z,17.46
2022-09-14T01:44:58.204Z,17.41
2022-09-14T01:47:29.066Z,17.44
2022-09-14T01:50:00.091Z,17.47
2022-09-14T01:52:31.765Z,17.52
2022-09-14T01:55:02.878Z,17.56
2022-09-14T01:57:35.727Z,17.58
2022-09-14T02:00:07.809Z,17.59
2022-09-14T02:02:38.462Z,17.60
2022-09-14T02:05:10.576Z,17.65
2022-09-14T02:07:38.469Z,17.64
2022-09-14T02:10:09.002Z,17.67
2022-09-14T02:12:38.297Z,17.71
2022-09-14T02:15:07.687Z,17.75
2022-09-14T02:17:35.347Z,17.78
2022-09-14T02:20:06.198Z,17.80
2022-09-14T02:22:34.192Z,17.82
2022-09-14T02:25:01.964Z,17.80
2022-09-14T02:27:29.601Z,17.82
2022-09-14T02:29:58.584Z,17.81
2022-09-14T02:32:32.306Z,17.80
2022-09-14T02:35:07.368Z,17.81
2022-09-14T02:37:40.802Z,17.77
2022-09-14T02:40:14.036Z,17.80
2022-09-14T02:42:49.099Z,17.76
2022-09-14T02:45:24.053Z,17.71
2022-09-14T02:47:55.831Z,17.70
2022-09-14T02:50:27.747Z,17.68
2022-09-14T02:53:05.778Z,17.70
2022-09-14T02:55:36.923Z,17.73
2022-09-14T02:58:07.111Z,17.71
2022-09-14T03:00:38.320Z,17.70
2022-09-14T03:03:06.752Z,17.69
2022-09-14T03:05:35.068Z,17.68
2022-09-14T03:08:03.966Z,17.68
2022-09-14T03:10:32.150Z,17.69
2022-09-14T03:13:00.365Z,17.71
2022-09-14T03:15:28.608Z,17.73
2022-09-14T03:17:57.790Z,17.71
2022-09-14T03:20:28.211Z,17.69
2022-09-14T03:22:55.864Z,17.65
2022-09-14T03:25:23.911Z,17.65
2022-09-14T03:27:52.230Z,17.67
2022-09-14T03:30:20.438Z,17.66
2022-09-14T03:32:48.534Z,17.64
2022-09-14T03:35:18.237Z,17.60
2022-09-14T03:37:46.978Z,17.55
2022-09-14T03:40:21.405Z,17.55
2022-09-14T03:42:50.660Z,17.57
2022-09-14T03:45:19.113Z,17.52
2022-09-14T03:47:47.104Z,17.50
2022-09-14T03:50:15.837Z,17.49
2022-09-14T03:52:45.061Z,17.47
2022-09-14T03:55:12.989Z,17.49
2022-09-14T03:57:40.843Z,17.53
2022-09-14T04:00:10.339Z,17.56
2022-09-14T04:02:38.106Z,17.60
2022-09-14T04:05:06.401Z,17.58
2022-09-14T04:07:34.174Z,17.56
2022-09-14T04:10:03.277Z,17.59
2022-09-14T04:12:35.622Z,17.62
2022-09-14T04:15:03.590Z,17.63
2022-09-14T04:17:31.417Z,17.63
2022-09-14T04:19:59.091Z,17.67
2022-09-14T04:22:26.762Z,17.69
2022-09-14T04:24:54.964Z,17.74
2022-09-14T04:27:24.363Z,17.78
2022-09-14T04:29:52.443Z,17.85
2022-09-14T04:32:20.195Z,17.88
2022-09-14T04:34:49.460Z,17.93
2022-09-14T04:37:17.430Z,17.96
2022-09-14T04:39:45.355Z,17.99
2022-09-14T04:42:13.228Z,18.02
2022-09-14T04:44:42.254Z,18.06
2022-09-14T04:47:10.006Z,18.09
2022-09-14T04:49:37.600Z,18.13
2022-09-14T04:52:05.500Z,18.13
2022-09-14T04:54:33.274Z,18.12
2022-09-14T04:57:01.083Z,18.12
2022-09-14T04:59:28.716Z,18.13
2022-09-14T05:01:57.883Z,18.13
2022-09-14T05:04:25.760Z,18.19
2022-09-14T05:06:53.493Z,18.24
2022-09-14T05:09:21.639Z,18.27
2022-09-14T05:11:51.840Z,18.30
2022-09-14T05:14:19.773Z,18.36
2022-09-14T05:16:48.068Z,18.39
2022-09-14T05:19:18.605Z,18.42
2022-09-14T05:21:46.629Z,18.46
2022-09-14T05:24:16.098Z,18.51
2022-09-14T05:26:44.929Z,18.54
2022-09-14T05:29:13.653Z,18.57
2022-09-14T05:31:41.514Z,18.58
2022-09-14T05:34:10.237Z,18.60
2022-09-14T05:36:39.523Z,18.64
2022-09-14T05:39:07.363Z,18.67
2022-09-14T05:41:35.169Z,18.70
2022-09-14T05:44:03.123Z,18.77
2022-09-14T05:46:30.873Z,18.84
2022-09-14T05:48:58.653Z,18.88
2022-09-14T05:51:28.332Z,18.92
2022-09-14T05:53:59.322Z,18.94
2022-09-14T05:56:28.454Z,18.97
2022-09-14T05:58:56.203Z,18.98
2022-09-14T06:01:25.799Z,19.01
2022-09-14T06:03:54.731Z,19.04
2022-09-14T06:06:23.086Z,19.06
2022-09-14T06:08:53.783Z,19.10
2022-09-14T06:11:24.399Z,19.13
2022-09-14T06:13:52.650Z,19.14
2022-09-14T06:16:22.035Z,19.15
2022-09-14T06:18:50.228Z,19.17
2022-09-14T06:21:19.922Z,19.19
2022-09-14T06:23:48.579Z,19.23
2022-09-14T06:29:13.572Z,19.34
2022-09-14T06:31:41.296Z,19.36
2022-09-14T06:34:08.989Z,19.42
2022-09-14T06:36:37.921Z,19.49
2022-09-14T06:39:05.713Z,19.51
2022-09-14T06:41:34.826Z,19.55
2022-09-14T06:44:02.802Z,19.60
2022-09-14T06:46:31.780Z,19.63
2022-09-14T06:49:01.553Z,19.58
2022-09-14T06:51:31.684Z,19.59
2022-09-14T06:54:00.482Z,19.63
2022-09-14T06:56:28.308Z,19.67
2022-09-14T06:58:58.440Z,19.69
2022-09-14T07:01:27.667Z,19.73
2022-09-14T07:03:55.648Z,19.82
2022-09-14T07:06:25.781Z,19.89
2022-09-14T07:08:54.456Z,19.93
2022-09-14T07:11:25.728Z,20.00
2022-09-14T07:13:54.959Z,20.13
2022-09-14T07:16:24.578Z,20.21
2022-09-14T07:18:54.217Z,20.31
2022-09-14T07:21:22.458Z,20.42
2022-09-14T07:23:50.628Z,20.52
2022-09-14T07:26:20.292Z,20.60
2022-09-14T07:28:51.786Z,20.70
2022-09-14T07:31:21.870Z,20.80
2022-09-14T07:33:54.361Z,20.96
2022-09-14T07:36:23.094Z,21.04
2022-09-14T07:38:52.949Z,21.17
2022-09-14T07:41:21.732Z,21.28
2022-09-14T07:43:50.489Z,21.38
2022-09-14T07:46:18.486Z,21.50
2022-09-14T07:48:46.219Z,21.59
2022-09-14T07:51:15.440Z,21.66
2022-09-14T07:53:44.161Z,21.79
2022-09-14T07:56:13.546Z,21.89
2022-09-14T07:58:42.080Z,22.00
2022-09-14T08:01:12.011Z,22.07
2022-09-14T08:03:40.718Z,22.14
2022-09-14T08:06:10.728Z,22.21
2022-09-14T08:08:41.810Z,22.28
2022-09-14T08:11:11.639Z,22.33
2022-09-14T08:13:40.300Z,22.44
2022-09-14T08:16:08.263Z,22.62
2022-09-14T08:18:36.898Z,22.83
2022-09-14T08:21:07.579Z,23.01
2022-09-14T08:23:35.888Z,23.14
2022-09-14T08:26:05.664Z,23.29
2022-09-14T08:28:34.048Z,23.47
2022-09-14T08:31:06.959Z,23.62
2022-09-14T08:33:35.736Z,23.73
2022-09-14T08:36:03.953Z,23.89
2022-09-14T08:38:31.834Z,23.99
2022-09-14T08:41:00.638Z,24.13
2022-09-14T08:43:29.675Z,24.29
2022-09-14T08:46:03.726Z,24.48
2022-09-14T08:48:34.703Z,24.62
2022-09-14T08:51:02.557Z,24.68
2022-09-14T08:53:30.254Z,24.75
2022-09-14T08:56:01.478Z,24.76
2022-09-14T08:58:46.309Z,24.87
2022-09-14T09:01:22.339Z,24.95
2022-09-14T09:04:00.278Z,24.94
2022-09-14T09:06:34.157Z,24.87
2022-09-14T09:09:09.255Z,24.80
2022-09-14T09:11:40.352Z,24.75
2022-09-14T09:14:18.546Z,24.56
2022-09-14T09:16:48.171Z,24.33
2022-09-14T09:19:19.276Z,23.93
2022-09-14T09:21:48.800Z,23.71
2022-09-14T09:24:23.810Z,23.63
2022-09-14T09:26:51.465Z,23.60
2022-09-14T09:29:20.621Z,23.49
2022-09-14T09:31:51.915Z,23.50
2022-09-14T09:34:25.698Z,23.59
2022-09-14T09:36:53.593Z,23.64
2022-09-14T09:39:32.270Z,23.68
2022-09-14T09:42:02.684Z,23.77
2022-09-14T09:44:31.651Z,23.80
2022-09-14T09:47:00.918Z,23.93
2022-09-14T09:49:31.601Z,24.09
2022-09-14T09:52:08.241Z,24.25
2022-09-14T09:54:36.630Z,24.35
2022-09-14T09:57:06.443Z,24.45
2022-09-14T09:59:36.909Z,24.30
2022-09-14T10:02:27.922Z,24.29
2022-09-14T10:05:01.540Z,24.30
2022-09-14T10:07:30.324Z,24.28
2022-09-14T10:09:59.442Z,24.24
2022-09-14T10:12:27.742Z,24.24
2022-09-14T10:15:15.527Z,24.35
2022-09-14T10:17:55.552Z,24.52
2022-09-14T10:20:24.779Z,24.66
2022-09-14T10:22:52.661Z,24.78
2022-09-14T10:25:26.146Z,24.93
2022-09-14T10:28:03.117Z,25.02
2022-09-14T10:30:38.232Z,25.07
2022-09-14T10:33:07.423Z,24.95
2022-09-14T10:35:47.387Z,25.08
2022-09-14T10:38:26.160Z,25.26
2022-09-14T10:41:14.463Z,25.41
2022-09-14T10:44:03.406Z,25.52
2022-09-14T10:46:39.163Z,25.65
2022-09-14T10:49:24.811Z,25.96
2022-09-14T10:51:57.541Z,26.09
2022-09-14T10:54:41.013Z,26.39
2022-09-14T10:57:14.626Z,26.62
2022-09-14T10:59:48.453Z,26.77
2022-09-14T11:02:29.617Z,26.80
2022-09-14T11:05:07.326Z,26.87
2022-09-14T11:07:39.103Z,26.86
2022-09-14T11:10:18.476Z,26.92
2022-09-14T11:12:55.755Z,27.05
2022-09-14T11:15:29.252Z,27.23
2022-09-14T11:18:08.604Z,27.52
2022-09-14T11:20:42.957Z,27.79
2022-09-14T11:23:21.224Z,27.88
2022-09-14T11:25:53.647Z,27.96
2022-09-14T11:28:24.513Z,27.93
2022-09-14T11:30:55.699Z,28.10
2022-09-14T11:33:31.202Z,28.22
2022-09-14T11:36:02.732Z,27.92
2022-09-14T11:38:32.244Z,27.73
2022-09-14T11:41:03.096Z,27.99
2022-09-14T11:43:32.182Z,27.80
2022-09-14T11:46:05.993Z,27.91
2022-09-14T11:48:55.697Z,28.03
2022-09-14T11:51:26.192Z,28.09
2022-09-14T11:53:54.029Z,27.93
2022-09-14T11:56:26.807Z,28.06
2022-09-14T11:58:59.372Z,28.13
2022-09-14T12:01:33.570Z,28.02
2022-09-14T12:04:20.402Z,28.09
2022-09-14T12:06:51.376Z,27.73
2022-09-14T12:09:53.699Z,28.00
2022-09-14T12:12:36.607Z,28.23
2022-09-14T12:15:15.426Z,28.34
2022-09-14T12:17:45.278Z,28.35
2022-09-14T12:20:44.871Z,28.32
2022-09-14T12:23:31.088Z,28.21
2022-09-14T12:26:31.268Z,28.07
2022-09-14T12:29:05.788Z,28.02
2022-09-14T12:31:56.182Z,27.82
2022-09-14T12:34:24.723Z,27.62
2022-09-14T12:37:24.888Z,27.51
2022-09-14T12:40:37.959Z,27.40
2022-09-14T12:43:49.210Z,27.21
2022-09-14T12:46:41.789Z,26.98
2022-09-14T12:49:30.266Z,26.95
2022-09-14T12:52:00.583Z,26.92
2022-09-14T12:54:39.294Z,26.76
2022-09-14T12:57:24.397Z,26.53
2022-09-14T12:59:56.438Z,26.13
2022-09-14T13:02:56.696Z,26.15
2022-09-14T13:05:26.659Z,26.09
2022-09-14T13:07:54.983Z,26.07
2022-09-14T13:10:28.792Z,25.93
2022-09-14T13:12:57.098Z,25.84
2022-09-14T13:15:27.829Z,26.03
2022-09-14T13:18:00.066Z,26.09
2022-09-14T13:20:28.419Z,25.93
2022-09-14T13:22:56.161Z,26.04
2022-09-14T13:25:32.574Z,26.07
2022-09-14T13:28:02.202Z,26.18
2022-09-14T13:30:31.737Z,26.25
2022-09-14T13:33:00.320Z,26.34
2022-09-14T13:35:34.170Z,26.43
2022-09-14T13:38:07.334Z,26.40
2022-09-14T13:40:37.623Z,26.32
2022-09-14T13:43:05.412Z,26.25
2022-09-14T13:45:33.992Z,26.18
2022-09-14T13:48:02.168Z,26.10
2022-09-14T13:50:29.951Z,25.97
2022-09-14T13:53:02.346Z,25.85
2022-09-14T13:55:45.106Z,25.70
2022-09-14T13:58:22.354Z,25.70
2022-09-14T14:00:53.532Z,25.63
2022-09-14T14:03:33.539Z,25.55
2022-09-14T14:06:05.115Z,25.10
2022-09-14T14:08:35.957Z,25.12
2022-09-14T14:11:06.831Z,25.00
2022-09-14T14:13:35.650Z,25.04
2022-09-14T14:16:20.504Z,24.91
2022-09-14T14:18:53.533Z,24.92
2022-09-14T14:21:29.867Z,24.88
2022-09-14T14:24:24.456Z,24.84
2022-09-14T14:26:55.297Z,24.77
2022-09-14T14:29:23.169Z,24.75
2022-09-14T14:31:51.250Z,24.68
2022-09-14T14:34:22.297Z,24.65
2022-09-14T14:36:50.926Z,24.57
2022-09-14T14:39:21.233Z,24.46
2022-09-14T14:41:49.564Z,24.40
2022-09-14T14:44:20.848Z,24.37
2022-09-14T14:46:48.619Z,24.38
2022-09-14T14:49:17.823Z,24.34
2022-09-14T14:51:45.570Z,24.29
2022-09-14T14:54:16.781Z,24.21
2022-09-14T14:56:46.480Z,24.17
2022-09-14T14:59:26.840Z,24.03
2022-09-14T15:01:55.316Z,23.92
2022-09-14T15:04:23.122Z,23.80
2022-09-14T15:06:51.269Z,23.60
2022-09-14T15:09:19.976Z,23.57
2022-09-14T15:11:48.855Z,23.60
2022-09-14T15:14:22.128Z,23.63
2022-09-14T15:16:55.079Z,23.65
2022-09-14T15:19:22.745Z,23.62
2022-09-14T15:21:50.440Z,23.57
2022-09-14T15:24:18.080Z,23.35
2022-09-14T15:26:45.734Z,23.29
2022-09-14T15:29:14.241Z,23.15
2022-09-14T15:31:43.356Z,22.91
2022-09-14T15:34:11.212Z,22.55
2022-09-14T15:36:40.912Z,22.20
2022-09-14T15:39:10.912Z,21.92
2022-09-14T15:41:38.704Z,21.81
2022-09-14T15:44:07.354Z,21.74
2022-09-14T15:46:35.111Z,21.56
2022-09-14T15:49:08.216Z,21.45
2022-09-14T15:51:35.894Z,21.31
2022-09-14T15:54:04.173Z,21.27
2022-09-14T15:56:31.890Z,21.15
2022-09-14T15:59:00.438Z,21.09
2022-09-14T16:01:29.117Z,21.02
2022-09-14T16:03:58.297Z,21.03
2022-09-14T16:06:28.071Z,20.96
2022-09-14T16:08:56.189Z,20.92
2022-09-14T16:11:23.821Z,20.87
2022-09-14T16:13:52.341Z,20.84
2022-09-14T16:16:21.269Z,20.85
2022-09-14T16:18:49.849Z,20.70
2022-09-14T16:21:19.165Z,20.69
2022-09-14T16:23:49.683Z,20.48
2022-09-14T16:26:20.506Z,20.52
2022-09-14T16:28:49.550Z,20.53
2022-09-14T16:31:18.677Z,20.56
2022-09-14T16:33:47.685Z,20.42
2022-09-14T16:36:17.644Z,20.48
2022-09-14T16:38:45.277Z,20.43
2022-09-14T16:41:15.033Z,20.45
2022-09-14T16:43:43.136Z,20.43
2022-09-14T16:46:12.580Z,20.45
2022-09-14T16:48:42.016Z,20.46
2022-09-14T16:51:10.253Z,20.44
2022-09-14T16:53:39.256Z,20.38
2022-09-14T16:56:08.719Z,20.36
2022-09-14T16:58:38.789Z,20.32
2022-09-14T17:01:07.972Z,20.28
2022-09-14T17:03:36.016Z,20.27
2022-09-14T17:06:04.707Z,20.26
2022-09-14T17:08:32.812Z,20.24
2022-09-14T17:11:01.041Z,20.23
2022-09-14T17:13:29.131Z,20.16
2022-09-14T17:16:03.281Z,20.11
2022-09-14T17:18:31.141Z,20.03
2022-09-14T17:21:00.403Z,20.01
2022-09-14T17:23:28.399Z,19.97
2022-09-14T17:25:56.694Z,19.91
2022-09-14T17:28:28.196Z,19.83
2022-09-14T17:30:57.532Z,19.74
2022-09-14T17:33:27.281Z,19.67
2022-09-14T17:35:56.379Z,19.63
2022-09-14T17:38:25.780Z,19.51
2022-09-14T17:40:53.544Z,19.51
2022-09-14T17:43:21.291Z,19.52
2022-09-14T17:45:55.860Z,19.52
2022-09-14T17:48:24.404Z,19.51
2022-09-14T17:50:53.611Z,19.52
2022-09-14T17:53:21.717Z,19.51
2022-09-14T17:55:49.401Z,19.53
2022-09-14T17:58:19.769Z,19.48
2022-09-14T18:00:47.632Z,19.37
2022-09-14T18:03:15.364Z,19.36
2022-09-14T18:05:43.039Z,19.31
2022-09-14T18:08:12.005Z,19.35
2022-09-14T18:10:39.633Z,19.36
2022-09-14T18:13:07.238Z,19.34
2022-09-14T18:15:38.297Z,19.34
2022-09-14T18:18:08.139Z,19.31
2022-09-14T18:20:35.765Z,19.29
2022-09-14T18:23:03.317Z,19.32
2022-09-14T18:25:32.504Z,19.33
2022-09-14T18:28:00.085Z,19.32
2022-09-14T18:30:27.895Z,19.34
2022-09-14T18:32:55.533Z,19.34
2022-09-14T18:35:23.251Z,19.27
2022-09-14T18:37:50.855Z,19.31
2022-09-14T18:40:20.419Z,19.29
2022-09-14T18:42:50.282Z,19.31
2022-09-14T18:45:18.004Z,19.35
2022-09-14T18:47:45.651Z,19.31
2022-09-14T18:50:14.860Z,19.27
2022-09-14T18:52:42.530Z,19.32
2022-09-14T18:55:10.560Z,19.33
2022-09-14T18:57:38.207Z,19.32
2022-09-14T19:00:09.325Z,19.32
2022-09-14T19:02:38.948Z,19.35
2022-09-14T19:05:07.430Z,19.38
2022-09-14T19:07:36.176Z,19.37
2022-09-14T19:10:03.856Z,19.38
2022-09-14T19:12:31.664Z,19.36
2022-09-14T19:14:59.283Z,19.34
2022-09-14T19:17:28.700Z,19.33
2022-09-14T19:19:56.343Z,19.33
2022-09-14T19:22:24.003Z,19.31
2022-09-14T19:24:51.755Z,19.24
2022-09-14T19:27:19.413Z,19.21
2022-09-14T19:29:47.067Z,19.18
2022-09-14T19:32:14.761Z,19.15
2022-09-14T19:34:43.791Z,19.15
2022-09-14T19:37:11.565Z,19.13
2022-09-14T19:39:39.244Z,19.06
2022-09-14T19:42:07.175Z,19.03
2022-09-14T19:44:34.822Z,19.00
2022-09-14T19:47:02.466Z,18.96
2022-09-14T19:49:30.170Z,18.96
2022-09-14T19:51:59.189Z,18.91
2022-09-14T19:54:26.869Z,18.87
2022-09-14T19:56:54.557Z,18.86
2022-09-14T19:59:22.229Z,18.84
2022-09-14T20:01:50.903Z,18.81
2022-09-14T20:04:19.279Z,18.81
2022-09-14T20:06:48.168Z,18.81
2022-09-14T20:09:19.449Z,18.79
2022-09-14T20:11:48.784Z,18.74
2022-09-14T20:14:18.953Z,18.71
2022-09-14T20:16:48.517Z,18.70
2022-09-14T20:19:17.685Z,18.71
2022-09-14T20:21:46.292Z,18.70
2022-09-14T20:24:17.363Z,18.67
2022-09-14T20:26:47.335Z,18.66
2022-09-14T20:29:15.345Z,18.65
2022-09-14T20:31:43.274Z,18.63
2022-09-14T20:34:11.222Z,18.60
2022-09-14T20:36:38.871Z,18.58
2022-09-14T20:39:06.508Z,18.57
2022-09-14T20:41:35.707Z,18.58
2022-09-14T20:44:05.257Z,18.56
2022-09-14T20:46:35.991Z,18.54
2022-09-14T20:49:04.714Z,18.51
2022-09-14T20:51:32.845Z,18.47
2022-09-14T20:54:00.494Z,18.44
2022-09-14T20:56:30.983Z,18.40
2022-09-14T20:58:59.675Z,18.40
2022-09-14T21:01:30.234Z,18.35
2022-09-14T21:04:03.928Z,18.32
2022-09-14T21:06:32.017Z,18.33
2022-09-14T21:09:00.980Z,18.35
2022-09-14T21:11:29.058Z,18.35
2022-09-14T21:13:57.638Z,18.35
2022-09-14T21:16:26.783Z,18.36
2022-09-14T21:18:57.339Z,18.36
2022-09-14T21:21:25.731Z,18.32
2022-09-14T21:23:54.149Z,18.33
2022-09-14T21:26:21.767Z,18.34
2022-09-14T21:28:49.666Z,18.35
2022-09-14T21:31:19.013Z,18.37
2022-09-14T21:33:48.171Z,18.37
2022-09-14T21:36:18.516Z,18.34
2022-09-14T21:38:49.601Z,18.33
2022-09-14T21:41:17.230Z,18.33
2022-09-14T21:43:44.851Z,18.32
2022-09-14T21:46:12.981Z,18.21
2022-09-14T21:48:40.604Z,18.08
2022-09-14T21:51:17.086Z,18.07
2022-09-14T21:53:47.278Z,18.14
2022-09-14T21:56:15.194Z,18.17
2022-09-14T21:58:42.862Z,18.17
2022-09-14T22:01:11.645Z,18.15
2022-09-14T22:03:40.374Z,18.13
2022-09-14T22:06:10.172Z,18.11
2022-09-14T22:08:37.781Z,18.06
2022-09-14T22:11:08.239Z,18.05
2022-09-14T22:13:35.846Z,18.07
2022-09-14T22:16:08.736Z,18.06
2022-09-14T22:18:36.895Z,18.04
2022-09-14T22:21:05.316Z,18.00
2022-09-14T22:23:33.498Z,17.94
2022-09-14T22:26:03.746Z,17.93
2022-09-14T22:28:32.673Z,17.90
2022-09-14T22:31:00.372Z,17.88
2022-09-14T22:33:28.911Z,17.87
2022-09-14T22:35:57.815Z,17.89
2022-09-14T22:38:27.389Z,17.89
2022-09-14T22:40:56.199Z,17.84
2022-09-14T22:43:24.324Z,17.85
2022-09-14T22:45:53.897Z,17.84
2022-09-14T22:48:22.554Z,17.87
2022-09-14T22:50:51.850Z,17.88
2022-09-14T22:53:20.002Z,17.86
2022-09-14T22:55:48.120Z,17.79
2022-09-14T22:58:17.247Z,17.83
2022-09-14T23:00:46.571Z,17.83
2022-09-14T23:03:17.205Z,17.83
2022-09-14T23:05:50.657Z,17.82
2022-09-14T23:08:18.879Z,17.85
2022-09-14T23:10:47.466Z,17.89
2022-09-14T23:13:15.547Z,17.88
2022-09-14T23:15:43.573Z,17.92
2022-09-14T23:18:11.729Z,17.92
2022-09-14T23:20:42.499Z,17.94
2022-09-14T23:23:10.740Z,17.92
2022-09-14T23:25:40.298Z,17.93
2022-09-14T23:28:09.210Z,17.97
2022-09-14T23:30:36.925Z,17.96
2022-09-14T23:33:04.741Z,18.02
2022-09-14T23:35:35.807Z,18.03
2022-09-14T23:38:06.861Z,18.04
2022-09-14T23:40:34.614Z,18.06
2022-09-14T23:43:02.385Z,18.04
2022-09-14T23:45:30.125Z,18.00
2022-09-14T23:47:57.719Z,17.98
2022-09-14T23:50:25.828Z,17.99
2022-09-14T23:52:57.348Z,17.95
2022-09-14T23:55:26.532Z,17.95
2022-09-14T23:57:54.436Z,17.96
